sensor_id;sensor_type;location;lat;lon;timestamp;pressure;altitude;pressure_sealevel;temperature
69545;BMP180;56766;52.260;20.746;2024-01-10T00:00:34;102181.00;;;-10.10
69545;BMP180;56766;52.260;20.746;2024-01-10T00:03:20;102171.40;;;-10.10
69545;BMP180;56766;52.260;20.746;2024-01-10T00:05:47;102165.60;;;-10.10
69545;BMP180;56766;52.260;20.746;2024-01-10T00:08:14;102166.40;;;-10.10
69545;BMP180;56766;52.260;20.746;2024-01-10T00:10:40;102157.80;;;-10.10
69545;BMP180;56766;52.260;20.746;2024-01-10T00:13:07;102151.80;;;-10.10
69545;BMP180;56766;52.260;20.746;2024-01-10T00:15:34;102149.80;;;-10.08
69545;BMP180;56766;52.260;20.746;2024-01-10T00:18:00;102153.20;;;-10.10
69545;BMP180;56766;52.260;20.746;2024-01-10T00:20:27;102154.80;;;-10.04
69545;BMP180;56766;52.260;20.746;2024-01-10T00:22:54;102148.20;;;-10.10
69545;BMP180;56766;52.260;20.746;2024-01-10T00:25:21;102150.60;;;-10.00
69545;BMP180;56766;52.260;20.746;2024-01-10T00:27:47;102146.80;;;-10.00
69545;BMP180;56766;52.260;20.746;2024-01-10T00:30:14;102147.40;;;-10.00
69545;BMP180;56766;52.260;20.746;2024-01-10T00:32:41;102149.40;;;-10.00
69545;BMP180;56766;52.260;20.746;2024-01-10T00:35:07;102142.60;;;-10.00
69545;BMP180;56766;52.260;20.746;2024-01-10T00:37:34;102156.80;;;-10.00
69545;BMP180;56766;52.260;20.746;2024-01-10T00:40:01;102156.20;;;-10.00
69545;BMP180;56766;52.260;20.746;2024-01-10T00:42:28;102156.20;;;-10.00
69545;BMP180;56766;52.260;20.746;2024-01-10T00:44:54;102159.20;;;-10.00
69545;BMP180;56766;52.260;20.746;2024-01-10T00:47:21;102165.20;;;-10.00
69545;BMP180;56766;52.260;20.746;2024-01-10T00:49:48;102160.60;;;-10.00
69545;BMP180;56766;52.260;20.746;2024-01-10T00:52:15;102158.00;;;-10.00
69545;BMP180;56766;52.260;20.746;2024-01-10T00:54:42;102158.80;;;-10.00
69545;BMP180;56766;52.260;20.746;2024-01-10T00:57:10;102160.60;;;-10.00
69545;BMP180;56766;52.260;20.746;2024-01-10T00:59:37;102153.60;;;-10.00
69545;BMP180;56766;52.260;20.746;2024-01-10T01:02:03;102154.20;;;-10.00
69545;BMP180;56766;52.260;20.746;2024-01-10T01:04:31;102156.80;;;-10.00
69545;BMP180;56766;52.260;20.746;2024-01-10T01:06:57;102159.40;;;-10.00
69545;BMP180;56766;52.260;20.746;2024-01-10T01:09:24;102147.00;;;-10.00
69545;BMP180;56766;52.260;20.746;2024-01-10T01:11:51;102144.40;;;-10.00
69545;BMP180;56766;52.260;20.746;2024-01-10T01:14:18;102149.40;;;-10.00
69545;BMP180;56766;52.260;20.746;2024-01-10T01:16:44;102147.20;;;-10.00
69545;BMP180;56766;52.260;20.746;2024-01-10T01:19:11;102137.00;;;-10.00
69545;BMP180;56766;52.260;20.746;2024-01-10T01:21:38;102143.20;;;-10.08
69545;BMP180;56766;52.260;20.746;2024-01-10T01:24:05;102138.60;;;-10.10
69545;BMP180;56766;52.260;20.746;2024-01-10T01:26:31;102139.80;;;-10.06
69545;BMP180;56766;52.260;20.746;2024-01-10T01:28:59;102138.80;;;-10.10
69545;BMP180;56766;52.260;20.746;2024-01-10T01:31:25;102132.20;;;-10.10
69545;BMP180;56766;52.260;20.746;2024-01-10T01:33:52;102123.60;;;-10.10
69545;BMP180;56766;52.260;20.746;2024-01-10T01:36:19;102128.80;;;-10.10
69545;BMP180;56766;52.260;20.746;2024-01-10T01:38:46;102120.20;;;-10.10
69545;BMP180;56766;52.260;20.746;2024-01-10T01:41:12;102116.20;;;-10.06
69545;BMP180;56766;52.260;20.746;2024-01-10T01:43:42;102116.20;;;-10.10
69545;BMP180;56766;52.260;20.746;2024-01-10T01:46:10;102121.80;;;-10.10
69545;BMP180;56766;52.260;20.746;2024-01-10T01:48:37;102113.40;;;-10.08
69545;BMP180;56766;52.260;20.746;2024-01-10T01:51:07;102109.60;;;-10.08
69545;BMP180;56766;52.260;20.746;2024-01-10T01:53:36;102106.20;;;-10.08
69545;BMP180;56766;52.260;20.746;2024-01-10T01:56:07;102101.80;;;-10.02
69545;BMP180;56766;52.260;20.746;2024-01-10T01:58:36;102101.60;;;-10.00
69545;BMP180;56766;52.260;20.746;2024-01-10T02:01:05;102104.80;;;-10.00
69545;BMP180;56766;52.260;20.746;2024-01-10T02:03:32;102104.60;;;-10.00
69545;BMP180;56766;52.260;20.746;2024-01-10T02:06:00;102109.20;;;-10.00
69545;BMP180;56766;52.260;20.746;2024-01-10T02:08:34;102107.00;;;-10.00
69545;BMP180;56766;52.260;20.746;2024-01-10T02:11:02;102104.60;;;-10.00
69545;BMP180;56766;52.260;20.746;2024-01-10T02:13:31;102104.60;;;-10.00
69545;BMP180;56766;52.260;20.746;2024-01-10T02:15:59;102111.60;;;-10.00
69545;BMP180;56766;52.260;20.746;2024-01-10T02:18:26;102108.60;;;-10.00
69545;BMP180;56766;52.260;20.746;2024-01-10T02:20:52;102107.40;;;-10.00
69545;BMP180;56766;52.260;20.746;2024-01-10T02:23:19;102110.00;;;-9.94
69545;BMP180;56766;52.260;20.746;2024-01-10T02:25:46;102114.80;;;-9.94
69545;BMP180;56766;52.260;20.746;2024-01-10T02:28:13;102108.20;;;-10.00
69545;BMP180;56766;52.260;20.746;2024-01-10T02:30:39;102111.20;;;-9.98
69545;BMP180;56766;52.260;20.746;2024-01-10T02:33:06;102110.20;;;-9.90
69545;BMP180;56766;52.260;20.746;2024-01-10T02:35:33;102102.60;;;-9.90
69545;BMP180;56766;52.260;20.746;2024-01-10T02:38:00;102106.80;;;-9.90
69545;BMP180;56766;52.260;20.746;2024-01-10T02:40:27;102098.40;;;-9.90
69545;BMP180;56766;52.260;20.746;2024-01-10T02:42:53;102097.80;;;-9.96
69545;BMP180;56766;52.260;20.746;2024-01-10T02:45:20;102094.20;;;-10.00
69545;BMP180;56766;52.260;20.746;2024-01-10T02:47:47;102093.40;;;-9.92
69545;BMP180;56766;52.260;20.746;2024-01-10T02:50:13;102088.60;;;-9.90
69545;BMP180;56766;52.260;20.746;2024-01-10T02:52:40;102088.00;;;-9.90
69545;BMP180;56766;52.260;20.746;2024-01-10T02:55:07;102083.60;;;-9.92
69545;BMP180;56766;52.260;20.746;2024-01-10T02:57:34;102086.00;;;-9.90
69545;BMP180;56766;52.260;20.746;2024-01-10T03:00:01;102077.40;;;-9.90
69545;BMP180;56766;52.260;20.746;2024-01-10T03:02:28;102072.00;;;-9.90
69545;BMP180;56766;52.260;20.746;2024-01-10T03:04:54;102069.80;;;-9.90
69545;BMP180;56766;52.260;20.746;2024-01-10T03:07:21;102067.40;;;-9.90
69545;BMP180;56766;52.260;20.746;2024-01-10T03:09:51;102067.60;;;-9.90
69545;BMP180;56766;52.260;20.746;2024-01-10T03:12:17;102062.40;;;-9.90
69545;BMP180;56766;52.260;20.746;2024-01-10T03:14:44;102060.00;;;-9.90
69545;BMP180;56766;52.260;20.746;2024-01-10T03:17:11;102051.00;;;-9.90
69545;BMP180;56766;52.260;20.746;2024-01-10T03:19:38;102051.20;;;-9.90
69545;BMP180;56766;52.260;20.746;2024-01-10T03:22:09;102043.40;;;-9.90
69545;BMP180;56766;52.260;20.746;2024-01-10T03:24:37;102049.00;;;-9.90
69545;BMP180;56766;52.260;20.746;2024-01-10T03:27:06;102045.60;;;-9.90
69545;BMP180;56766;52.260;20.746;2024-01-10T03:29:32;102049.60;;;-9.90
69545;BMP180;56766;52.260;20.746;2024-01-10T03:31:59;102045.60;;;-9.90
69545;BMP180;56766;52.260;20.746;2024-01-10T03:34:26;102043.00;;;-9.90
69545;BMP180;56766;52.260;20.746;2024-01-10T03:36:52;102041.20;;;-9.90
69545;BMP180;56766;52.260;20.746;2024-01-10T03:39:19;102047.20;;;-9.90
69545;BMP180;56766;52.260;20.746;2024-01-10T03:41:47;102037.80;;;-9.90
69545;BMP180;56766;52.260;20.746;2024-01-10T03:44:13;102033.00;;;-9.90
69545;BMP180;56766;52.260;20.746;2024-01-10T03:46:40;102027.40;;;-9.90
69545;BMP180;56766;52.260;20.746;2024-01-10T03:49:07;102036.20;;;-9.90
69545;BMP180;56766;52.260;20.746;2024-01-10T03:51:34;102042.00;;;-9.90
69545;BMP180;56766;52.260;20.746;2024-01-10T03:54:01;102045.60;;;-9.88
69545;BMP180;56766;52.260;20.746;2024-01-10T03:56:27;102037.60;;;-9.88
69545;BMP180;56766;52.260;20.746;2024-01-10T03:58:54;102036.80;;;-9.80
69545;BMP180;56766;52.260;20.746;2024-01-10T04:01:23;102038.80;;;-9.80
69545;BMP180;56766;52.260;20.746;2024-01-10T04:03:50;102030.40;;;-9.80
69545;BMP180;56766;52.260;20.746;2024-01-10T04:06:17;102032.40;;;-9.80
69545;BMP180;56766;52.260;20.746;2024-01-10T04:08:43;102020.20;;;-9.88
69545;BMP180;56766;52.260;20.746;2024-01-10T04:11:10;102014.00;;;-9.88
69545;BMP180;56766;52.260;20.746;2024-01-10T04:13:37;102013.40;;;-9.88
69545;BMP180;56766;52.260;20.746;2024-01-10T04:16:04;102008.20;;;-9.90
69545;BMP180;56766;52.260;20.746;2024-01-10T04:18:30;102008.80;;;-9.90
69545;BMP180;56766;52.260;20.746;2024-01-10T04:20:57;102000.20;;;-9.90
69545;BMP180;56766;52.260;20.746;2024-01-10T04:23:24;102003.80;;;-9.90
69545;BMP180;56766;52.260;20.746;2024-01-10T04:25:50;101998.60;;;-9.90
69545;BMP180;56766;52.260;20.746;2024-01-10T04:28:17;102001.60;;;-9.88
69545;BMP180;56766;52.260;20.746;2024-01-10T04:30:43;101997.60;;;-9.90
69545;BMP180;56766;52.260;20.746;2024-01-10T04:33:10;102001.00;;;-9.82
69545;BMP180;56766;52.260;20.746;2024-01-10T04:35:37;101991.20;;;-9.84
69545;BMP180;56766;52.260;20.746;2024-01-10T04:38:04;101993.00;;;-9.80
69545;BMP180;56766;52.260;20.746;2024-01-10T04:40:30;101994.40;;;-9.82
69545;BMP180;56766;52.260;20.746;2024-01-10T04:42:57;101995.60;;;-9.80
69545;BMP180;56766;52.260;20.746;2024-01-10T04:45:23;101996.00;;;-9.80
69545;BMP180;56766;52.260;20.746;2024-01-10T04:47:50;101998.20;;;-9.80
69545;BMP180;56766;52.260;20.746;2024-01-10T04:50:17;102001.60;;;-9.82
69545;BMP180;56766;52.260;20.746;2024-01-10T04:52:43;102007.20;;;-9.80
69545;BMP180;56766;52.260;20.746;2024-01-10T04:55:10;102003.80;;;-9.84
69545;BMP180;56766;52.260;20.746;2024-01-10T04:57:37;102013.20;;;-9.90
69545;BMP180;56766;52.260;20.746;2024-01-10T05:00:04;102012.00;;;-9.90
69545;BMP180;56766;52.260;20.746;2024-01-10T05:02:31;102009.40;;;-9.90
69545;BMP180;56766;52.260;20.746;2024-01-10T05:04:58;102010.00;;;-9.88
69545;BMP180;56766;52.260;20.746;2024-01-10T05:07:25;102007.60;;;-9.88
69545;BMP180;56766;52.260;20.746;2024-01-10T05:09:51;102009.60;;;-9.86
69545;BMP180;56766;52.260;20.746;2024-01-10T05:12:18;102019.60;;;-9.88
69545;BMP180;56766;52.260;20.746;2024-01-10T05:14:45;102022.60;;;-9.90
69545;BMP180;56766;52.260;20.746;2024-01-10T05:17:12;102021.20;;;-9.90
69545;BMP180;56766;52.260;20.746;2024-01-10T05:19:38;102026.60;;;-9.90
69545;BMP180;56766;52.260;20.746;2024-01-10T05:22:06;102030.80;;;-9.90
69545;BMP180;56766;52.260;20.746;2024-01-10T05:24:32;102026.60;;;-9.90
69545;BMP180;56766;52.260;20.746;2024-01-10T05:26:59;102026.20;;;-9.90
69545;BMP180;56766;52.260;20.746;2024-01-10T05:29:26;102025.40;;;-9.90
69545;BMP180;56766;52.260;20.746;2024-01-10T05:31:53;102022.80;;;-9.90
69545;BMP180;56766;52.260;20.746;2024-01-10T05:34:20;102025.60;;;-9.90
69545;BMP180;56766;52.260;20.746;2024-01-10T05:36:47;102016.80;;;-9.90
69545;BMP180;56766;52.260;20.746;2024-01-10T05:39:15;102026.20;;;-9.90
69545;BMP180;56766;52.260;20.746;2024-01-10T05:41:42;102018.40;;;-9.90
69545;BMP180;56766;52.260;20.746;2024-01-10T05:44:10;102013.40;;;-9.82
69545;BMP180;56766;52.260;20.746;2024-01-10T05:46:36;102014.60;;;-9.82
69545;BMP180;56766;52.260;20.746;2024-01-10T05:49:03;102018.60;;;-9.80
69545;BMP180;56766;52.260;20.746;2024-01-10T05:51:31;102019.80;;;-9.80
69545;BMP180;56766;52.260;20.746;2024-01-10T05:53:59;102020.80;;;-9.80
69545;BMP180;56766;52.260;20.746;2024-01-10T05:56:25;102006.60;;;-9.80
69545;BMP180;56766;52.260;20.746;2024-01-10T05:58:53;102019.40;;;-9.80
69545;BMP180;56766;52.260;20.746;2024-01-10T06:01:20;102015.40;;;-9.80
69545;BMP180;56766;52.260;20.746;2024-01-10T06:03:47;102011.20;;;-9.80
69545;BMP180;56766;52.260;20.746;2024-01-10T06:06:13;102006.40;;;-9.80
69545;BMP180;56766;52.260;20.746;2024-01-10T06:08:41;102004.80;;;-9.80
69545;BMP180;56766;52.260;20.746;2024-01-10T06:11:07;102003.80;;;-9.82
69545;BMP180;56766;52.260;20.746;2024-01-10T06:13:36;101991.60;;;-9.84
69545;BMP180;56766;52.260;20.746;2024-01-10T06:16:07;101988.40;;;-9.90
69545;BMP180;56766;52.260;20.746;2024-01-10T06:18:33;101986.60;;;-9.90
69545;BMP180;56766;52.260;20.746;2024-01-10T06:21:00;101988.40;;;-9.90
69545;BMP180;56766;52.260;20.746;2024-01-10T06:23:27;101993.80;;;-9.90
69545;BMP180;56766;52.260;20.746;2024-01-10T06:25:54;101989.00;;;-9.90
69545;BMP180;56766;52.260;20.746;2024-01-10T06:28:20;101987.80;;;-9.90
69545;BMP180;56766;52.260;20.746;2024-01-10T06:30:47;101990.40;;;-9.90
69545;BMP180;56766;52.260;20.746;2024-01-10T06:33:15;101995.60;;;-9.90
69545;BMP180;56766;52.260;20.746;2024-01-10T06:35:42;101995.60;;;-9.90
69545;BMP180;56766;52.260;20.746;2024-01-10T06:38:12;101997.40;;;-9.90
69545;BMP180;56766;52.260;20.746;2024-01-10T06:40:38;101998.80;;;-9.90
69545;BMP180;56766;52.260;20.746;2024-01-10T06:43:05;102005.00;;;-9.92
69545;BMP180;56766;52.260;20.746;2024-01-10T06:45:34;102011.00;;;-9.96
69545;BMP180;56766;52.260;20.746;2024-01-10T06:48:01;102008.80;;;-9.90
69545;BMP180;56766;52.260;20.746;2024-01-10T06:50:28;102013.80;;;-9.90
69545;BMP180;56766;52.260;20.746;2024-01-10T06:52:54;102009.40;;;-9.90
69545;BMP180;56766;52.260;20.746;2024-01-10T06:55:21;102005.00;;;-9.90
69545;BMP180;56766;52.260;20.746;2024-01-10T06:57:50;102009.80;;;-9.90
69545;BMP180;56766;52.260;20.746;2024-01-10T07:00:21;102014.60;;;-9.82
69545;BMP180;56766;52.260;20.746;2024-01-10T07:02:49;102016.20;;;-9.82
69545;BMP180;56766;52.260;20.746;2024-01-10T07:05:15;102018.00;;;-9.80
69545;BMP180;56766;52.260;20.746;2024-01-10T07:07:43;102018.60;;;-9.80
69545;BMP180;56766;52.260;20.746;2024-01-10T07:10:10;102017.20;;;-9.70
69545;BMP180;56766;52.260;20.746;2024-01-10T07:12:37;102019.60;;;-9.70
69545;BMP180;56766;52.260;20.746;2024-01-10T07:15:04;102013.40;;;-9.62
69545;BMP180;56766;52.260;20.746;2024-01-10T07:17:33;102017.00;;;-9.60
69545;BMP180;56766;52.260;20.746;2024-01-10T07:20:00;102020.00;;;-9.56
69545;BMP180;56766;52.260;20.746;2024-01-10T07:22:26;102016.80;;;-9.50
69545;BMP180;56766;52.260;20.746;2024-01-10T07:24:53;102021.60;;;-9.40
69545;BMP180;56766;52.260;20.746;2024-01-10T07:27:20;102023.80;;;-9.30
69545;BMP180;56766;52.260;20.746;2024-01-10T07:29:46;102020.80;;;-9.20
69545;BMP180;56766;52.260;20.746;2024-01-10T07:32:13;102018.00;;;-9.02
69545;BMP180;56766;52.260;20.746;2024-01-10T07:34:40;102019.40;;;-8.90
69545;BMP180;56766;52.260;20.746;2024-01-10T07:37:07;102018.20;;;-8.82
69545;BMP180;56766;52.260;20.746;2024-01-10T07:39:35;102019.00;;;-8.76
69545;BMP180;56766;52.260;20.746;2024-01-10T07:42:02;102017.40;;;-8.70
69545;BMP180;56766;52.260;20.746;2024-01-10T07:44:29;102003.40;;;-8.60
69545;BMP180;56766;52.260;20.746;2024-01-10T07:46:56;102006.40;;;-8.58
69545;BMP180;56766;52.260;20.746;2024-01-10T07:49:22;102005.00;;;-8.50
69545;BMP180;56766;52.260;20.746;2024-01-10T07:51:50;102003.60;;;-8.40
69545;BMP180;56766;52.260;20.746;2024-01-10T07:54:17;102011.00;;;-8.30
69545;BMP180;56766;52.260;20.746;2024-01-10T07:56:44;102012.60;;;-8.20
69545;BMP180;56766;52.260;20.746;2024-01-10T07:59:11;102003.60;;;-8.20
69545;BMP180;56766;52.260;20.746;2024-01-10T08:01:44;102005.80;;;-8.10
69545;BMP180;56766;52.260;20.746;2024-01-10T08:04:22;102009.40;;;-8.00
69545;BMP180;56766;52.260;20.746;2024-01-10T08:06:49;102010.40;;;-7.90
69545;BMP180;56766;52.260;20.746;2024-01-10T08:09:16;102017.80;;;-7.80
69545;BMP180;56766;52.260;20.746;2024-01-10T08:11:42;102011.60;;;-7.74
69545;BMP180;56766;52.260;20.746;2024-01-10T08:14:09;102015.00;;;-7.68
69545;BMP180;56766;52.260;20.746;2024-01-10T08:16:36;102011.40;;;-7.60
69545;BMP180;56766;52.260;20.746;2024-01-10T08:19:03;102012.80;;;-7.50
69545;BMP180;56766;52.260;20.746;2024-01-10T08:21:29;102010.40;;;-7.40
69545;BMP180;56766;52.260;20.746;2024-01-10T08:23:56;102006.60;;;-7.30
69545;BMP180;56766;52.260;20.746;2024-01-10T08:26:23;102006.40;;;-7.14
69545;BMP180;56766;52.260;20.746;2024-01-10T08:28:49;101999.80;;;-6.96
69545;BMP180;56766;52.260;20.746;2024-01-10T08:31:16;102009.80;;;-6.80
69545;BMP180;56766;52.260;20.746;2024-01-10T08:33:43;102010.00;;;-6.80
69545;BMP180;56766;52.260;20.746;2024-01-10T08:36:10;102009.00;;;-6.70
69545;BMP180;56766;52.260;20.746;2024-01-10T08:38:38;102006.60;;;-6.66
69545;BMP180;56766;52.260;20.746;2024-01-10T08:41:06;101999.80;;;-6.60
69545;BMP180;56766;52.260;20.746;2024-01-10T08:43:34;101999.20;;;-6.52
69545;BMP180;56766;52.260;20.746;2024-01-10T08:46:01;101993.20;;;-6.50
69545;BMP180;56766;52.260;20.746;2024-01-10T08:48:27;101995.20;;;-6.40
69545;BMP180;56766;52.260;20.746;2024-01-10T08:50:54;101992.40;;;-6.40
69545;BMP180;56766;52.260;20.746;2024-01-10T08:53:24;101997.80;;;-6.30
69545;BMP180;56766;52.260;20.746;2024-01-10T08:55:51;102003.60;;;-6.22
69545;BMP180;56766;52.260;20.746;2024-01-10T08:58:17;102003.40;;;-6.18
69545;BMP180;56766;52.260;20.746;2024-01-10T09:00:44;102008.80;;;-6.12
69545;BMP180;56766;52.260;20.746;2024-01-10T09:03:11;102008.00;;;-6.14
69545;BMP180;56766;52.260;20.746;2024-01-10T09:05:38;102007.00;;;-6.10
69545;BMP180;56766;52.260;20.746;2024-01-10T09:08:06;102005.80;;;-6.02
69545;BMP180;56766;52.260;20.746;2024-01-10T09:10:33;102008.40;;;-6.00
69545;BMP180;56766;52.260;20.746;2024-01-10T09:13:00;102018.80;;;-5.92
69545;BMP180;56766;52.260;20.746;2024-01-10T09:15:27;102019.40;;;-5.90
69545;BMP180;56766;52.260;20.746;2024-01-10T09:17:54;102016.40;;;-5.90
69545;BMP180;56766;52.260;20.746;2024-01-10T09:20:20;102025.20;;;-5.90
69545;BMP180;56766;52.260;20.746;2024-01-10T09:22:47;102026.40;;;-5.90
69545;BMP180;56766;52.260;20.746;2024-01-10T09:25:15;102010.20;;;-5.80
69545;BMP180;56766;52.260;20.746;2024-01-10T09:27:42;102004.20;;;-5.70
69545;BMP180;56766;52.260;20.746;2024-01-10T09:30:11;102007.40;;;-5.50
69545;BMP180;56766;52.260;20.746;2024-01-10T09:32:37;102004.80;;;-5.40
69545;BMP180;56766;52.260;20.746;2024-01-10T09:35:04;102005.00;;;-5.28
69545;BMP180;56766;52.260;20.746;2024-01-10T09:37:31;102001.40;;;-5.14
69545;BMP180;56766;52.260;20.746;2024-01-10T09:39:58;102004.20;;;-5.04
69545;BMP180;56766;52.260;20.746;2024-01-10T09:42:25;101998.00;;;-4.90
69545;BMP180;56766;52.260;20.746;2024-01-10T09:44:52;102000.00;;;-4.80
69545;BMP180;56766;52.260;20.746;2024-01-10T09:47:20;102009.40;;;-4.72
69545;BMP180;56766;52.260;20.746;2024-01-10T09:49:47;102009.00;;;-4.70
69545;BMP180;56766;52.260;20.746;2024-01-10T09:52:25;102011.60;;;-4.60
69545;BMP180;56766;52.260;20.746;2024-01-10T09:54:57;102004.40;;;-4.56
69545;BMP180;56766;52.260;20.746;2024-01-10T09:57:26;102001.20;;;-4.50
69545;BMP180;56766;52.260;20.746;2024-01-10T09:59:53;101996.60;;;-4.50
69545;BMP180;56766;52.260;20.746;2024-01-10T10:02:23;102007.20;;;-4.40
69545;BMP180;56766;52.260;20.746;2024-01-10T10:05:15;102007.20;;;-4.30
69545;BMP180;56766;52.260;20.746;2024-01-10T10:07:48;102005.20;;;-4.30
69545;BMP180;56766;52.260;20.746;2024-01-10T10:10:16;102009.20;;;-4.20
69545;BMP180;56766;52.260;20.746;2024-01-10T10:12:52;102000.80;;;-4.20
69545;BMP180;56766;52.260;20.746;2024-01-10T10:15:24;101999.40;;;-4.20
69545;BMP180;56766;52.260;20.746;2024-01-10T10:17:55;101992.40;;;-4.20
69545;BMP180;56766;52.260;20.746;2024-01-10T10:20:30;101992.00;;;-4.30
69545;BMP180;56766;52.260;20.746;2024-01-10T10:23:03;101992.20;;;-4.30
69545;BMP180;56766;52.260;20.746;2024-01-10T10:25:34;101992.00;;;-4.28
69545;BMP180;56766;52.260;20.746;2024-01-10T10:28:03;101984.40;;;-4.20
69545;BMP180;56766;52.260;20.746;2024-01-10T10:30:32;101982.00;;;-4.20
69545;BMP180;56766;52.260;20.746;2024-01-10T10:33:01;101980.20;;;-4.30
69545;BMP180;56766;52.260;20.746;2024-01-10T10:35:29;101977.60;;;-4.30
69545;BMP180;56766;52.260;20.746;2024-01-10T10:37:58;101964.60;;;-4.30
69545;BMP180;56766;52.260;20.746;2024-01-10T10:40:25;101960.60;;;-4.20
69545;BMP180;56766;52.260;20.746;2024-01-10T10:42:56;101962.80;;;-4.10
69545;BMP180;56766;52.260;20.746;2024-01-10T10:45:24;101962.40;;;-4.00
69545;BMP180;56766;52.260;20.746;2024-01-10T10:48:01;101964.00;;;-3.90
69545;BMP180;56766;52.260;20.746;2024-01-10T10:50:35;101964.40;;;-3.90
69545;BMP180;56766;52.260;20.746;2024-01-10T10:53:03;101957.80;;;-3.90
69545;BMP180;56766;52.260;20.746;2024-01-10T10:55:32;101949.20;;;-3.80
69545;BMP180;56766;52.260;20.746;2024-01-10T10:58:03;101943.40;;;-3.80
69545;BMP180;56766;52.260;20.746;2024-01-10T11:00:34;101947.80;;;-3.70
69545;BMP180;56766;52.260;20.746;2024-01-10T11:03:04;101940.40;;;-3.60
69545;BMP180;56766;52.260;20.746;2024-01-10T11:05:31;101939.00;;;-3.60
69545;BMP180;56766;52.260;20.746;2024-01-10T11:08:04;101936.20;;;-3.50
69545;BMP180;56766;52.260;20.746;2024-01-10T11:10:35;101933.40;;;-3.50
69545;BMP180;56766;52.260;20.746;2024-01-10T11:19:38;101932.20;;;-3.50
69545;BMP180;56766;52.260;20.746;2024-01-10T11:25:04;101932.20;;;-3.48
69545;BMP180;56766;52.260;20.746;2024-01-10T11:27:31;101930.00;;;-3.42
69545;BMP180;56766;52.260;20.746;2024-01-10T11:30:00;101929.20;;;-3.50
69545;BMP180;56766;52.260;20.746;2024-01-10T11:32:27;101923.20;;;-3.50
69545;BMP180;56766;52.260;20.746;2024-01-10T11:34:54;101916.80;;;-3.50
69545;BMP180;56766;52.260;20.746;2024-01-10T11:37:22;101914.20;;;-3.50
69545;BMP180;56766;52.260;20.746;2024-01-10T11:39:51;101905.80;;;-3.42
69545;BMP180;56766;52.260;20.746;2024-01-10T11:42:23;101906.80;;;-3.40
69545;BMP180;56766;52.260;20.746;2024-01-10T11:44:51;101909.20;;;-3.40
69545;BMP180;56766;52.260;20.746;2024-01-10T11:47:20;101904.60;;;-3.40
69545;BMP180;56766;52.260;20.746;2024-01-10T11:49:58;101896.20;;;-3.30
69545;BMP180;56766;52.260;20.746;2024-01-10T11:52:34;101891.80;;;-3.30
69545;BMP180;56766;52.260;20.746;2024-01-10T11:55:01;101889.20;;;-3.30
69545;BMP180;56766;52.260;20.746;2024-01-10T11:57:29;101889.20;;;-3.20
69545;BMP180;56766;52.260;20.746;2024-01-10T11:59:59;101881.80;;;-3.20
69545;BMP180;56766;52.260;20.746;2024-01-10T12:02:32;101888.80;;;-3.20
69545;BMP180;56766;52.260;20.746;2024-01-10T12:04:58;101882.40;;;-3.16
69545;BMP180;56766;52.260;20.746;2024-01-10T12:07:25;101880.20;;;-3.10
69545;BMP180;56766;52.260;20.746;2024-01-10T12:09:52;101881.00;;;-3.10
69545;BMP180;56766;52.260;20.746;2024-01-10T12:12:18;101883.20;;;-3.10
69545;BMP180;56766;52.260;20.746;2024-01-10T12:14:45;101882.00;;;-3.10
69545;BMP180;56766;52.260;20.746;2024-01-10T12:17:13;101882.80;;;-3.14
69545;BMP180;56766;52.260;20.746;2024-01-10T12:19:40;101881.60;;;-3.10
69545;BMP180;56766;52.260;20.746;2024-01-10T12:22:11;101879.00;;;-3.10
69545;BMP180;56766;52.260;20.746;2024-01-10T12:24:48;101880.20;;;-3.00
69545;BMP180;56766;52.260;20.746;2024-01-10T12:27:20;101881.60;;;-3.00
69545;BMP180;56766;52.260;20.746;2024-01-10T12:29:51;101882.80;;;-3.00
69545;BMP180;56766;52.260;20.746;2024-01-10T12:32:20;101879.40;;;-3.00
69545;BMP180;56766;52.260;20.746;2024-01-10T12:34:49;101880.20;;;-3.00
69545;BMP180;56766;52.260;20.746;2024-01-10T12:37:20;101884.60;;;-2.90
69545;BMP180;56766;52.260;20.746;2024-01-10T12:39:47;101888.80;;;-3.00
69545;BMP180;56766;52.260;20.746;2024-01-10T12:42:15;101887.20;;;-3.00
69545;BMP180;56766;52.260;20.746;2024-01-10T12:44:45;101878.20;;;-3.00
69545;BMP180;56766;52.260;20.746;2024-01-10T12:47:20;101877.80;;;-3.00
69545;BMP180;56766;52.260;20.746;2024-01-10T12:49:47;101875.20;;;-2.90
69545;BMP180;56766;52.260;20.746;2024-01-10T12:52:14;101874.00;;;-2.90
69545;BMP180;56766;52.260;20.746;2024-01-10T12:54:42;101867.80;;;-2.90
69545;BMP180;56766;52.260;20.746;2024-01-10T12:57:08;101865.80;;;-2.90
69545;BMP180;56766;52.260;20.746;2024-01-10T12:59:35;101867.40;;;-2.90
69545;BMP180;56766;52.260;20.746;2024-01-10T13:02:03;101857.00;;;-2.90
69545;BMP180;56766;52.260;20.746;2024-01-10T13:04:29;101862.20;;;-2.90
69545;BMP180;56766;52.260;20.746;2024-01-10T13:06:56;101867.40;;;-2.90
69545;BMP180;56766;52.260;20.746;2024-01-10T13:09:23;101861.80;;;-2.90
69545;BMP180;56766;52.260;20.746;2024-01-10T13:11:50;101853.00;;;-2.90
69545;BMP180;56766;52.260;20.746;2024-01-10T13:14:17;101867.00;;;-2.94
69545;BMP180;56766;52.260;20.746;2024-01-10T13:16:44;101861.40;;;-3.00
69545;BMP180;56766;52.260;20.746;2024-01-10T13:19:10;101859.00;;;-3.00
69545;BMP180;56766;52.260;20.746;2024-01-10T13:21:37;101854.60;;;-3.00
69545;BMP180;56766;52.260;20.746;2024-01-10T13:24:04;101858.40;;;-3.10
69545;BMP180;56766;52.260;20.746;2024-01-10T13:26:31;101851.00;;;-3.10
69545;BMP180;56766;52.260;20.746;2024-01-10T13:28:58;101854.80;;;-3.20
69545;BMP180;56766;52.260;20.746;2024-01-10T13:31:25;101851.20;;;-3.30
69545;BMP180;56766;52.260;20.746;2024-01-10T13:33:51;101852.60;;;-3.36
69545;BMP180;56766;52.260;20.746;2024-01-10T13:36:18;101851.20;;;-3.48
69545;BMP180;56766;52.260;20.746;2024-01-10T13:38:45;101846.00;;;-3.50
69545;BMP180;56766;52.260;20.746;2024-01-10T13:41:13;101846.80;;;-3.56
69545;BMP180;56766;52.260;20.746;2024-01-10T13:43:39;101840.40;;;-3.70
69545;BMP180;56766;52.260;20.746;2024-01-10T13:46:06;101837.60;;;-3.80
69545;BMP180;56766;52.260;20.746;2024-01-10T13:48:33;101839.00;;;-3.86
69545;BMP180;56766;52.260;20.746;2024-01-10T13:50:59;101838.40;;;-3.94
69545;BMP180;56766;52.260;20.746;2024-01-10T13:53:26;101840.60;;;-4.00